createdAt,value
2022-10-30T00:00:29.285Z,6.78
2022-10-30T00:02:56.331Z,5.40
2022-10-30T00:05:23.499Z,5.97
2022-10-30T00:07:50.609Z,5.93
2022-10-30T00:10:18.074Z,5.63
2022-10-30T00:12:44.823Z,6.20
2022-10-30T00:15:11.797Z,5.55
2022-10-30T00:17:38.513Z,5.90
2022-10-30T00:20:05.741Z,6.20
2022-10-30T00:22:32.386Z,5.68
2022-10-30T00:24:59.061Z,5.72
2022-10-30T00:27:25.754Z,5.63
2022-10-30T00:29:52.386Z,5.95
2022-10-30T00:32:19.145Z,6.15
2022-10-30T00:34:45.772Z,5.60
2022-10-30T00:37:12.450Z,6.28
2022-10-30T00:39:40.402Z,6.43
2022-10-30T00:42:12.636Z,6.40
2022-10-30T00:44:49.482Z,5.87
2022-10-30T00:47:37.996Z,5.57
2022-10-30T00:50:11.165Z,6.43
2022-10-30T00:52:44.590Z,5.50
2022-10-30T00:55:17.964Z,5.65
2022-10-30T00:57:46.417Z,5.10
2022-10-30T01:00:14.545Z,6.30
2022-10-30T01:02:43.869Z,6.00
2022-10-30T01:05:15.696Z,6.63
2022-10-30T01:07:42.471Z,6.07
2022-10-30T01:10:10.273Z,6.00
2022-10-30T01:12:38.093Z,5.68
2022-10-30T01:15:06.392Z,6.90
2022-10-30T01:18:05.434Z,7.13
2022-10-30T01:20:38.123Z,6.15
2022-10-30T01:23:33.986Z,6.10
2022-10-30T01:26:23.741Z,6.38
2022-10-30T01:29:27.887Z,7.13
2022-10-30T01:31:54.771Z,6.65
2022-10-30T01:34:33.407Z,7.60
2022-10-30T01:37:06.193Z,6.72
2022-10-30T01:39:38.196Z,6.88
2022-10-30T01:42:41.742Z,6.20
2022-10-30T01:45:11.565Z,6.35
2022-10-30T01:48:03.390Z,6.50
2022-10-30T01:50:43.542Z,6.30
2022-10-30T01:53:43.168Z,6.68
2022-10-30T01:56:17.528Z,5.93
2022-10-30T01:58:47.276Z,6.88
2022-10-30T02:01:14.209Z,7.03
2022-10-30T02:03:41.082Z,7.40
2022-10-30T02:06:07.930Z,7.15
2022-10-30T02:08:34.628Z,8.23
2022-10-30T02:11:01.870Z,7.97
2022-10-30T02:13:38.785Z,8.10
2022-10-30T02:16:06.088Z,6.82
2022-10-30T02:18:33.030Z,8.20
2022-10-30T02:21:01.140Z,7.65
2022-10-30T02:23:27.904Z,7.57
2022-10-30T02:25:55.076Z,7.55
2022-10-30T02:28:21.870Z,7.32
2022-10-30T02:30:49.047Z,8.27
2022-10-30T02:35:45.361Z,7.88
2022-10-30T02:38:12.101Z,8.68
2022-10-30T02:40:38.863Z,7.47
2022-10-30T02:43:07.688Z,8.30
2022-10-30T02:45:34.406Z,8.35
2022-10-30T02:48:02.583Z,7.97
2022-10-30T02:50:30.459Z,7.32
2022-10-30T02:52:59.331Z,6.30
2022-10-30T02:55:27.411Z,7.18
2022-10-30T02:57:55.209Z,7.00
2022-10-30T03:00:22.445Z,7.50
2022-10-30T03:05:26.370Z,7.53
2022-10-30T03:07:55.046Z,7.32
2022-10-30T03:10:22.884Z,6.32
2022-10-30T03:12:49.606Z,7.28
2022-10-30T03:15:16.456Z,7.18
2022-10-30T03:17:43.489Z,6.90
2022-10-30T03:20:11.573Z,6.70
2022-10-30T03:22:38.262Z,7.38
2022-10-30T03:25:05.546Z,7.80
2022-10-30T03:27:33.923Z,8.25
2022-10-30T03:30:00.582Z,8.05
2022-10-30T03:32:28.680Z,7.68
2022-10-30T03:34:55.425Z,7.53
2022-10-30T03:37:22.303Z,8.15
2022-10-30T03:39:49.885Z,8.40
2022-10-30T03:42:16.817Z,9.10
2022-10-30T03:44:43.517Z,8.73
2022-10-30T03:49:44.213Z,8.38
2022-10-30T03:52:14.113Z,7.97
2022-10-30T03:54:40.770Z,8.85
2022-10-30T03:57:08.002Z,9.05
2022-10-30T03:59:44.352Z,7.93
2022-10-30T04:02:29.491Z,8.25
2022-10-30T04:04:56.273Z,8.13
2022-10-30T04:07:22.997Z,7.65
2022-10-30T04:09:49.655Z,7.25
2022-10-30T04:12:16.346Z,8.18
2022-10-30T04:14:43.012Z,7.70
2022-10-30T04:19:37.574Z,7.85
2022-10-30T04:22:04.403Z,8.20
2022-10-30T04:24:31.122Z,8.50
2022-10-30T04:26:58.196Z,8.00
2022-10-30T04:29:24.842Z,7.93
2022-10-30T04:31:52.120Z,8.25
2022-10-30T04:34:19.726Z,8.85
2022-10-30T04:36:46.968Z,8.52
2022-10-30T04:39:13.844Z,8.85
2022-10-30T04:41:41.815Z,9.02
2022-10-30T04:44:16.031Z,8.30
2022-10-30T04:46:43.022Z,9.55
2022-10-30T04:49:10.853Z,9.25
2022-10-30T04:51:37.492Z,9.18
2022-10-30T04:54:06.233Z,9.20
2022-10-30T04:56:33.150Z,7.15
2022-10-30T04:59:00.307Z,8.93
2022-10-30T05:01:27.238Z,8.50
2022-10-30T05:03:54.988Z,8.07
2022-10-30T05:06:24.693Z,9.20
2022-10-30T05:08:51.409Z,8.20
2022-10-30T05:11:30.955Z,8.05
2022-10-30T05:13:57.622Z,7.85
2022-10-30T05:16:24.378Z,7.50
2022-10-30T05:18:51.805Z,7.95
2022-10-30T05:21:18.554Z,8.15
2022-10-30T05:23:46.730Z,8.25
2022-10-30T05:26:13.404Z,8.45
2022-10-30T05:28:41.466Z,8.30
2022-10-30T05:31:08.522Z,8.05
2022-10-30T05:34:07.491Z,8.77
2022-10-30T05:36:35.737Z,8.55
2022-10-30T05:39:04.737Z,8.82
2022-10-30T05:41:43.765Z,8.63
2022-10-30T05:44:10.507Z,8.23
2022-10-30T05:46:40.845Z,8.48
2022-10-30T05:49:24.924Z,9.00
2022-10-30T05:51:52.154Z,10.23
2022-10-30T05:54:18.906Z,9.15
2022-10-30T05:57:01.367Z,10.45
2022-10-30T05:59:30.243Z,8.65
2022-10-30T06:01:58.271Z,8.32
2022-10-30T06:04:25.112Z,7.65
2022-10-30T06:06:52.062Z,7.85
2022-10-30T06:09:18.738Z,8.18
2022-10-30T06:12:05.912Z,7.85
2022-10-30T06:14:51.105Z,8.93
2022-10-30T06:17:17.765Z,7.75
2022-10-30T06:19:55.281Z,7.93
2022-10-30T06:22:54.736Z,8.40
2022-10-30T06:25:24.005Z,8.05
2022-10-30T06:27:57.597Z,8.60
2022-10-30T06:30:28.791Z,9.02
2022-10-30T06:33:00.004Z,9.02
2022-10-30T06:35:28.594Z,8.85
2022-10-30T06:38:00.405Z,8.70
2022-10-30T06:40:30.338Z,9.05
2022-10-30T06:43:15.856Z,8.73
2022-10-30T06:45:47.749Z,8.75
2022-10-30T06:48:14.594Z,9.85
2022-10-30T06:50:46.784Z,9.32
2022-10-30T06:53:13.718Z,8.48
2022-10-30T06:55:41.070Z,10.23
2022-10-30T06:58:39.462Z,9.18
2022-10-30T07:03:56.823Z,9.27
2022-10-30T07:06:23.704Z,9.05
2022-10-30T07:08:50.362Z,10.13
2022-10-30T07:11:17.337Z,10.60
2022-10-30T07:13:58.365Z,10.60
2022-10-30T07:16:37.239Z,10.45
2022-10-30T07:19:05.095Z,11.68
2022-10-30T07:21:33.405Z,12.35
2022-10-30T07:24:02.573Z,10.65
2022-10-30T07:26:37.874Z,10.90
2022-10-30T07:29:20.986Z,11.32
2022-10-30T07:32:04.674Z,12.35
2022-10-30T07:34:48.541Z,11.68
2022-10-30T07:37:34.893Z,11.30
2022-10-30T07:40:12.482Z,11.52
2022-10-30T07:42:59.912Z,11.77
2022-10-30T07:45:45.832Z,11.60
2022-10-30T07:48:34.902Z,12.50
2022-10-30T07:51:07.117Z,11.85
2022-10-30T07:53:33.878Z,12.20
2022-10-30T07:56:01.024Z,12.35
2022-10-30T07:59:02.690Z,11.00
2022-10-30T08:01:49.808Z,11.65
2022-10-30T08:04:27.913Z,11.38
2022-10-30T08:07:00.047Z,11.68
2022-10-30T08:09:27.396Z,12.85
2022-10-30T08:11:54.170Z,11.85
2022-10-30T08:14:21.094Z,11.43
2022-10-30T08:16:47.798Z,11.50
2022-10-30T08:19:15.002Z,12.05
2022-10-30T08:21:42.234Z,11.07
2022-10-30T08:24:14.955Z,11.50
2022-10-30T08:26:45.199Z,10.77
2022-10-30T08:29:12.626Z,10.95
2022-10-30T08:31:40.223Z,12.13
2022-10-30T08:34:22.137Z,11.68
2022-10-30T08:36:54.178Z,12.88
2022-10-30T08:39:21.147Z,12.35
2022-10-30T08:42:00.278Z,12.40
2022-10-30T08:44:32.513Z,11.75
2022-10-30T08:47:31.926Z,12.50
2022-10-30T08:49:58.724Z,11.98
2022-10-30T08:52:28.675Z,11.25
2022-10-30T08:54:56.570Z,12.35
2022-10-30T08:57:26.287Z,14.00
2022-10-30T08:59:55.278Z,13.27
2022-10-30T09:02:42.104Z,12.07
2022-10-30T09:05:27.413Z,13.82
2022-10-30T09:08:14.134Z,13.23
2022-10-30T09:11:07.088Z,12.98
2022-10-30T09:13:33.985Z,13.23
2022-10-30T09:16:03.119Z,13.55
2022-10-30T09:18:32.668Z,13.30
2022-10-30T09:21:03.093Z,12.70
2022-10-30T09:23:35.143Z,12.52
2022-10-30T09:26:20.949Z,12.98
2022-10-30T09:29:03.104Z,11.68
2022-10-30T09:31:48.453Z,12.98
2022-10-30T09:34:19.298Z,11.68
2022-10-30T09:36:54.736Z,12.80
2022-10-30T09:39:22.745Z,13.60
2022-10-30T09:42:25.383Z,13.50
2022-10-30T09:45:29.221Z,12.00
2022-10-30T09:48:15.331Z,13.48
2022-10-30T09:51:14.546Z,12.80
2022-10-30T09:56:36.022Z,12.52
2022-10-30T09:59:17.558Z,12.60
2022-10-30T10:01:49.660Z,12.20
2022-10-30T10:04:27.028Z,12.88
2022-10-30T10:07:40.313Z,11.55
2022-10-30T10:10:42.201Z,12.30
2022-10-30T10:13:28.434Z,10.75
2022-10-30T10:16:16.050Z,13.25
2022-10-30T10:18:47.161Z,12.10
2022-10-30T10:21:28.210Z,12.55
2022-10-30T10:23:58.199Z,12.00
2022-10-30T10:26:47.706Z,11.57
2022-10-30T10:29:34.013Z,11.88
2022-10-30T10:32:19.077Z,12.77
2022-10-30T10:35:08.047Z,13.48
2022-10-30T10:37:45.263Z,11.57
2022-10-30T10:40:26.526Z,12.52
2022-10-30T10:43:19.850Z,12.45
2022-10-30T10:46:07.798Z,13.95
2022-10-30T10:48:48.518Z,12.35
2022-10-30T10:51:26.773Z,12.35
2022-10-30T10:54:02.745Z,13.35
2022-10-30T10:56:39.481Z,12.43
2022-10-30T10:59:20.822Z,13.20
2022-10-30T11:02:26.296Z,12.40
2022-10-30T11:04:55.525Z,11.68
2022-10-30T11:07:29.838Z,12.23
2022-10-30T11:09:57.884Z,12.00
2022-10-30T11:12:33.937Z,12.13
2022-10-30T11:15:55.465Z,11.27
2022-10-30T11:18:22.156Z,12.90
2022-10-30T11:21:08.317Z,14.10
2022-10-30T11:23:43.132Z,12.27
2022-10-30T11:26:18.313Z,12.80
2022-10-30T11:28:55.918Z,12.43
2022-10-30T11:31:24.078Z,12.25
2022-10-30T11:33:51.497Z,12.15
2022-10-30T11:36:22.921Z,11.35
2022-10-30T11:38:50.153Z,11.07
2022-10-30T11:41:18.156Z,11.90
2022-10-30T11:43:45.437Z,11.88
2022-10-30T11:46:22.474Z,12.05
2022-10-30T11:48:54.836Z,11.52
2022-10-30T11:51:52.337Z,11.23
2022-10-30T11:54:21.427Z,11.27
2022-10-30T11:56:52.041Z,12.18
2022-10-30T11:59:22.949Z,10.13
2022-10-30T12:02:18.072Z,10.55
2022-10-30T12:04:44.876Z,10.15
2022-10-30T12:07:32.965Z,9.45
2022-10-30T12:10:00.517Z,10.68
2022-10-30T12:12:31.659Z,9.48
2022-10-30T12:15:10.538Z,9.23
2022-10-30T12:17:39.477Z,9.82
2022-10-30T12:20:07.915Z,10.73
2022-10-30T12:22:35.634Z,10.38
2022-10-30T12:25:07.191Z,10.55
2022-10-30T12:27:37.236Z,10.73
2022-10-30T12:30:19.222Z,9.90
2022-10-30T12:32:50.987Z,9.35
2022-10-30T12:35:39.283Z,10.70
2022-10-30T12:38:44.236Z,10.52
2022-10-30T12:41:25.511Z,10.18
2022-10-30T12:44:02.823Z,9.48
2022-10-30T12:46:35.890Z,10.73
2022-10-30T12:49:10.971Z,10.68
2022-10-30T12:52:01.443Z,10.55
2022-10-30T12:54:30.822Z,9.65
2022-10-30T12:57:08.230Z,10.05
2022-10-30T12:59:39.527Z,10.63
2022-10-30T13:02:34.570Z,10.35
2022-10-30T13:05:18.758Z,10.32
2022-10-30T13:07:51.665Z,9.73
2022-10-30T13:10:28.690Z,9.85
2022-10-30T13:13:01.969Z,11.18
2022-10-30T13:15:33.720Z,9.73
2022-10-30T13:18:13.878Z,9.55
2022-10-30T13:20:41.226Z,9.70
2022-10-30T13:23:14.614Z,10.60
2022-10-30T13:26:09.963Z,9.93
2022-10-30T13:29:01.665Z,9.80
2022-10-30T13:31:50.603Z,10.10
2022-10-30T13:34:29.142Z,10.95
2022-10-30T13:36:57.914Z,10.15
2022-10-30T13:39:46.789Z,9.88
2022-10-30T13:42:30.321Z,10.82
2022-10-30T13:45:17.824Z,9.93
2022-10-30T13:48:20.565Z,9.63
2022-10-30T13:51:28.796Z,9.93
2022-10-30T13:54:25.365Z,10.27
2022-10-30T13:56:53.498Z,10.05
2022-10-30T13:59:24.254Z,9.93
2022-10-30T14:02:13.114Z,10.75
2022-10-30T14:05:01.576Z,10.27
2022-10-30T14:08:05.240Z,11.00
2022-10-30T14:10:47.136Z,9.63
2022-10-30T14:13:27.038Z,9.35
2022-10-30T14:16:07.510Z,9.40
2022-10-30T14:19:02.774Z,9.10
2022-10-30T14:21:31.622Z,10.00
2022-10-30T14:24:17.088Z,11.63
2022-10-30T14:26:50.095Z,9.88
2022-10-30T14:29:34.436Z,10.95
2022-10-30T14:32:13.817Z,11.45
2022-10-30T14:34:50.171Z,9.52
2022-10-30T14:37:36.751Z,9.38
2022-10-30T14:40:37.245Z,9.32
2022-10-30T14:43:14.835Z,8.82
2022-10-30T14:45:44.679Z,9.38
2022-10-30T14:48:30.381Z,10.02
2022-10-30T14:51:02.957Z,10.45
2022-10-30T14:54:07.434Z,9.52
2022-10-30T14:56:54.390Z,10.90
2022-10-30T14:59:32.679Z,9.45
2022-10-30T15:02:05.407Z,9.98
2022-10-30T15:05:10.025Z,9.90
2022-10-30T15:08:00.228Z,9.30
2022-10-30T15:10:36.114Z,9.90
2022-10-30T15:13:22.472Z,10.55
2022-10-30T15:16:06.921Z,10.48
2022-10-30T15:18:34.303Z,9.10
2022-10-30T15:21:05.875Z,9.27
2022-10-30T15:23:37.018Z,9.85
2022-10-30T15:26:16.693Z,9.52
2022-10-30T15:28:43.711Z,10.05
2022-10-30T15:31:27.283Z,9.77
2022-10-30T15:33:55.337Z,9.93
2022-10-30T15:36:30.942Z,9.95
2022-10-30T15:39:18.826Z,8.98
2022-10-30T15:41:48.571Z,9.25
2022-10-30T15:44:22.258Z,9.40
2022-10-30T15:46:54.476Z,9.52
2022-10-30T15:49:40.141Z,9.77
2022-10-30T15:52:24.949Z,10.45
2022-10-30T15:54:58.911Z,8.85
2022-10-30T15:58:02.280Z,9.20
2022-10-30T16:00:36.005Z,9.38
2022-10-30T16:03:15.885Z,10.55
2022-10-30T16:05:42.717Z,10.45
2022-10-30T16:08:20.642Z,10.05
2022-10-30T16:10:48.471Z,10.23
2022-10-30T16:13:18.904Z,11.88
2022-10-30T16:15:47.452Z,9.93
2022-10-30T16:18:23.476Z,9.98
2022-10-30T16:20:52.936Z,10.82
2022-10-30T16:23:21.110Z,10.48
2022-10-30T16:25:55.371Z,10.30
2022-10-30T16:28:29.938Z,9.15
2022-10-30T16:31:02.511Z,10.40
2022-10-30T16:33:30.768Z,10.73
2022-10-30T16:35:58.196Z,10.27
2022-10-30T16:38:28.700Z,10.50
2022-10-30T16:40:56.285Z,9.85
2022-10-30T16:43:28.093Z,9.35
2022-10-30T16:45:56.470Z,10.10
2022-10-30T16:48:29.415Z,10.63
2022-10-30T16:51:02.258Z,10.95
2022-10-30T16:53:29.780Z,10.77
2022-10-30T16:55:58.492Z,11.02
2022-10-30T16:58:29.282Z,13.43
2022-10-30T17:01:02.525Z,11.65
2022-10-30T17:03:33.803Z,11.25
2022-10-30T17:06:04.232Z,12.20
2022-10-30T17:08:42.450Z,11.77
2022-10-30T17:11:20.393Z,12.15
2022-10-30T17:13:52.819Z,13.20
2022-10-30T17:18:53.384Z,13.05
2022-10-30T17:21:40.370Z,12.52
2022-10-30T17:24:20.090Z,13.07
2022-10-30T17:26:56.298Z,13.70
2022-10-30T17:29:37.944Z,14.88
2022-10-30T17:32:06.563Z,14.32
2022-10-30T17:34:39.365Z,13.30
2022-10-30T17:37:06.039Z,12.88
2022-10-30T17:39:32.719Z,13.27
2022-10-30T17:41:59.372Z,14.52
2022-10-30T17:44:26.558Z,13.90
2022-10-30T17:46:54.488Z,14.30
2022-10-30T17:49:24.048Z,13.48
2022-10-30T17:51:50.805Z,13.90
2022-10-30T17:54:17.543Z,16.60
2022-10-30T17:56:44.493Z,15.35
2022-10-30T17:59:11.120Z,15.68
2022-10-30T18:01:37.936Z,14.38
2022-10-30T18:04:20.511Z,14.05
2022-10-30T18:06:48.232Z,13.77
2022-10-30T18:09:15.020Z,13.15
2022-10-30T18:11:41.674Z,15.20
2022-10-30T18:14:10.917Z,13.98
2022-10-30T18:16:38.403Z,14.32
2022-10-30T18:19:10.003Z,13.38
2022-10-30T18:21:36.727Z,14.50
2022-10-30T18:24:08.225Z,15.00
2022-10-30T18:26:40.083Z,13.50
2022-10-30T18:31:34.227Z,15.40
2022-10-30T18:34:00.880Z,14.07
2022-10-30T18:36:27.633Z,13.45
2022-10-30T18:38:54.661Z,13.10
2022-10-30T18:41:36.967Z,12.77
2022-10-30T18:44:04.587Z,15.35
2022-10-30T18:46:33.147Z,15.35
2022-10-30T18:49:00.129Z,14.70
2022-10-30T18:51:28.119Z,15.60
2022-10-30T18:53:56.680Z,14.32
2022-10-30T18:56:28.362Z,13.13
2022-10-30T18:59:01.682Z,13.77
2022-10-30T19:01:31.596Z,13.73
2022-10-30T19:04:01.072Z,14.25
2022-10-30T19:06:28.477Z,12.90
2022-10-30T19:08:55.306Z,12.32
2022-10-30T19:11:24.887Z,13.63
2022-10-30T19:13:53.029Z,12.88
2022-10-30T19:16:20.720Z,14.25
2022-10-30T19:18:48.393Z,15.43
2022-10-30T19:21:17.522Z,15.38
2022-10-30T19:23:44.714Z,13.27
2022-10-30T19:26:13.096Z,13.63
2022-10-30T19:28:40.967Z,14.10
2022-10-30T19:31:11.130Z,15.02
2022-10-30T19:33:37.790Z,14.65
2022-10-30T19:36:04.959Z,15.82
2022-10-30T19:38:32.935Z,17.48
2022-10-30T19:41:00.088Z,17.85
2022-10-30T19:43:26.885Z,18.92
2022-10-30T19:45:56.611Z,17.27
2022-10-30T19:48:47.826Z,17.30
2022-10-30T19:51:11.715Z,18.45
2022-10-30T19:53:39.191Z,17.35
2022-10-30T19:56:06.300Z,17.90
2022-10-30T19:58:32.951Z,19.42
2022-10-30T20:00:59.791Z,18.25
2022-10-30T20:03:26.542Z,19.30
2022-10-30T20:05:54.102Z,17.80
2022-10-30T20:08:23.010Z,18.23
2022-10-30T20:10:58.036Z,17.73
2022-10-30T20:13:26.141Z,18.52
2022-10-30T20:15:54.597Z,17.90
2022-10-30T20:18:24.077Z,17.27
2022-10-30T20:20:53.214Z,16.83
2022-10-30T20:23:21.262Z,16.92
2022-10-30T20:25:49.930Z,18.63
2022-10-30T20:28:24.163Z,16.92
2022-10-30T20:30:51.838Z,16.77
2022-10-30T20:33:19.572Z,15.60
2022-10-30T20:35:47.932Z,16.75
2022-10-30T20:38:26.866Z,15.57
2022-10-30T20:40:53.878Z,15.32
2022-10-30T20:43:24.826Z,16.08
2022-10-30T20:45:51.525Z,14.52
2022-10-30T20:48:18.161Z,15.75
2022-10-30T20:50:50.356Z,15.15
2022-10-30T20:53:17.422Z,15.40
2022-10-30T20:55:45.193Z,14.13
2022-10-30T20:58:12.305Z,16.67
2022-10-30T21:00:39.093Z,15.88
2022-10-30T21:03:06.294Z,16.13
2022-10-30T21:05:45.074Z,16.00
2022-10-30T21:08:13.724Z,15.23
2022-10-30T21:10:41.498Z,16.45
2022-10-30T21:13:09.529Z,14.90
2022-10-30T21:15:41.319Z,14.80
2022-10-30T21:18:08.772Z,15.73
2022-10-30T21:20:36.163Z,14.57
2022-10-30T21:23:03.101Z,13.82
2022-10-30T21:25:31.452Z,13.82
2022-10-30T21:27:58.309Z,13.55
2022-10-30T21:30:25.061Z,13.45
2022-10-30T21:32:51.851Z,12.77
2022-10-30T21:35:18.799Z,12.77
2022-10-30T21:37:45.469Z,12.20
2022-10-30T21:40:12.810Z,11.88
2022-10-30T21:42:39.465Z,12.00
2022-10-30T21:45:07.163Z,12.25
2022-10-30T21:47:33.870Z,12.65
2022-10-30T21:50:00.500Z,11.82
2022-10-30T21:52:27.163Z,13.65
2022-10-30T21:54:53.805Z,13.48
2022-10-30T21:57:20.481Z,12.88
2022-10-30T21:59:47.136Z,13.38
2022-10-30T22:02:15.178Z,13.70
2022-10-30T22:04:41.984Z,14.05
2022-10-30T22:07:08.988Z,13.25
2022-10-30T22:09:35.744Z,11.93
2022-10-30T22:12:02.385Z,12.48
2022-10-30T22:14:29.338Z,12.75
2022-10-30T22:16:56.195Z,12.27
2022-10-30T22:19:22.916Z,12.40
2022-10-30T22:21:49.623Z,12.38
2022-10-30T22:24:17.211Z,11.18
2022-10-30T22:26:43.887Z,12.13
2022-10-30T22:29:11.536Z,11.82
2022-10-30T22:31:38.212Z,12.68
2022-10-30T22:34:04.912Z,11.80
2022-10-30T22:36:33.604Z,13.18
2022-10-30T22:39:05.951Z,13.77
2022-10-30T22:41:37.659Z,13.07
2022-10-30T22:44:07.791Z,12.77
2022-10-30T22:46:35.595Z,11.75
2022-10-30T22:49:02.343Z,13.80
2022-10-30T22:51:32.303Z,13.40
2022-10-30T22:54:01.022Z,14.15
2022-10-30T22:56:29.921Z,13.60
2022-10-30T22:58:57.323Z,12.88
2022-10-30T23:01:26.526Z,14.38
2022-10-30T23:03:56.542Z,13.77
2022-10-30T23:06:23.722Z,14.45
2022-10-30T23:08:52.541Z,17.00
2022-10-30T23:11:19.313Z,16.08
2022-10-30T23:13:46.189Z,15.23
2022-10-30T23:16:16.522Z,15.73
2022-10-30T23:18:44.238Z,16.02
2022-10-30T23:21:14.164Z,17.08
2022-10-30T23:23:42.309Z,17.63
2022-10-30T23:26:12.231Z,17.60
2022-10-30T23:28:39.076Z,16.08
2022-10-30T23:31:10.301Z,16.27
2022-10-30T23:33:37.030Z,16.70
2022-10-30T23:36:04.488Z,17.63
2022-10-30T23:38:31.269Z,19.10
2022-10-30T23:40:57.925Z,17.60
2022-10-30T23:43:24.632Z,18.80
2022-10-30T23:45:51.423Z,17.33
2022-10-30T23:48:18.056Z,16.70
2022-10-30T23:50:44.716Z,15.80
2022-10-30T23:53:11.396Z,15.90
2022-10-30T23:55:38.159Z,16.70
2022-10-30T23:58:04.966Z,15.55
